KDAY/DAY METAR and TAF weather

Enter ICAO airport designator
Station Type Date Time Source
KDAY METAR 2018/10/21 04:56 UTC NOAA

KDAY 210456Z 33015G22KT 10SM FEW025 02/M03 A3021 RMK AO2 PK WND 34027/0413 SLP233 T00171028 401560017


Station Type Date Time Source
KDAY Decoded METAR 2018/10/21 04:56 UTC NOAA

COX DAYTON INTERNATIONAL, OH, United States (KDAY) 39-54N 084-13W 305M
Oct 21, 2018 - 12:56 AM EDT / 2018.10.21 0456 UTC
Wind: from the NNW (330 degrees) at 17 MPH (15 KT) gusting to 25 MPH (22 KT):0
Visibility: 10 mile(s):0
Sky conditions: mostly clear
Temperature: 35.1 F (1.7 C)
Dew Point: 27.0 F (-2.8 C)
Relative Humidity: 71%
Pressure (altimeter): 30.21 in. Hg (1023 hPa)
ob: KDAY 210456Z 33015G22KT 10SM FEW025 02/M03 A3021 RMK AO2 PK WND 34027/0413 SLP233 T00171028 401560017
cycle: 5

Station Type Date Time Source
KDAY TAF 2018/10/21 06:42 UTC NOAA

TAF KDAY 210539Z 2106/2206 32012G20KT P6SM FEW025
FM210700 30008KT P6SM SCT025
FM212100 27008KT P6SM FEW035
FM212300 20006KT P6SM SKC


Example: see airport list